createdAt,value
2023-01-13T00:01:36.692Z,97057.31
2023-01-13T00:04:11.653Z,97043.41
2023-01-13T00:06:53.176Z,97138.88
2023-01-13T00:09:24.452Z,97051.72
2023-01-13T00:11:57.929Z,97020.25
2023-01-13T00:14:30.852Z,97016.66
2023-01-13T00:16:57.701Z,97030.84
2023-01-13T00:19:30.646Z,97076.09
2023-01-13T00:21:57.970Z,97023.84
2023-01-13T00:24:25.231Z,97051.91
2023-01-13T00:26:53.965Z,97039.94
2023-01-13T00:29:24.696Z,97134.66
2023-01-13T00:32:05.252Z,97131.97
2023-01-13T00:34:34.285Z,96994.97
2023-01-13T00:37:21.133Z,97121.97
2023-01-13T00:39:48.831Z,96996.28
2023-01-13T00:42:42.000Z,97000.88
2023-01-13T00:45:09.413Z,97043.03
2023-01-13T00:47:37.462Z,97031.16
2023-01-13T00:50:05.880Z,97141.78
2023-01-13T00:52:35.389Z,97125.75
2023-01-13T00:55:29.345Z,97007.19
2023-01-13T01:03:54.391Z,97127.13
2023-01-13T01:10:41.275Z,97124.03
2023-01-13T01:13:28.247Z,97043.31
2023-01-13T01:19:29.398Z,97027.53
2023-01-13T01:22:25.965Z,97109.22
2023-01-13T01:24:57.366Z,97104.00
2023-01-13T01:31:48.510Z,97094.97
2023-01-13T01:34:40.991Z,97093.88
2023-01-13T01:37:32.745Z,97082.28
2023-01-13T01:40:21.726Z,97008.00
2023-01-13T01:47:04.719Z,97075.47
2023-01-13T01:50:04.498Z,96989.91
2023-01-13T01:52:41.272Z,96993.06
2023-01-13T01:56:17.581Z,96955.03
2023-01-13T02:02:27.070Z,96921.38
2023-01-13T02:04:58.285Z,97042.72
2023-01-13T02:07:28.527Z,96972.91
2023-01-13T02:10:06.800Z,97048.13
2023-01-13T02:12:47.978Z,97006.94
2023-01-13T02:15:17.978Z,96946.19
2023-01-13T02:18:33.793Z,97043.34
2023-01-13T02:21:14.963Z,97046.34
2023-01-13T02:24:46.997Z,96930.59
2023-01-13T02:27:59.646Z,97032.94
2023-01-13T02:31:12.965Z,97031.38
2023-01-13T02:34:05.435Z,96995.38
2023-01-13T02:37:16.525Z,96898.88
2023-01-13T02:40:23.166Z,97024.09
2023-01-13T02:43:16.684Z,97020.22
2023-01-13T02:46:22.543Z,97023.41
2023-01-13T02:48:52.929Z,97020.22
2023-01-13T02:51:21.716Z,97024.41
2023-01-13T02:53:57.146Z,96994.88
2023-01-13T02:56:24.573Z,97017.22
2023-01-13T02:58:53.065Z,97018.63
2023-01-13T03:01:20.002Z,97002.56
2023-01-13T03:03:47.117Z,96981.31
2023-01-13T03:06:16.428Z,97013.44
2023-01-13T03:09:00.934Z,97009.13
2023-01-13T03:11:38.864Z,96996.84
2023-01-13T03:14:11.246Z,97009.41
2023-01-13T03:17:02.479Z,96998.16
2023-01-13T03:20:09.579Z,96996.06
2023-01-13T03:22:44.861Z,96997.88
2023-01-13T03:25:24.427Z,96995.75
2023-01-13T03:27:56.749Z,96989.72
2023-01-13T03:30:29.498Z,96978.06
2023-01-13T03:33:03.528Z,96991.50
2023-01-13T03:35:35.277Z,96987.03
2023-01-13T03:38:15.208Z,96973.34
2023-01-13T03:40:50.967Z,96971.63
2023-01-13T03:43:45.028Z,96983.47
2023-01-13T03:46:22.293Z,96964.41
2023-01-13T03:48:52.971Z,96977.97
2023-01-13T03:51:23.006Z,96986.13
2023-01-13T03:53:55.898Z,96959.34
2023-01-13T03:56:37.765Z,96964.81
2023-01-13T03:59:08.155Z,96977.88
2023-01-13T04:01:53.703Z,96986.69
2023-01-13T04:04:27.067Z,96965.34
2023-01-13T04:07:12.895Z,96964.06
2023-01-13T04:09:56.068Z,96969.03
2023-01-13T04:12:51.223Z,96972.72
2023-01-13T04:15:20.697Z,96964.31
2023-01-13T04:17:47.600Z,96965.53
2023-01-13T04:20:15.500Z,96943.25
2023-01-13T04:22:44.420Z,96965.84
2023-01-13T04:25:11.656Z,96956.47
2023-01-13T04:27:44.920Z,96971.06
2023-01-13T04:30:11.921Z,96977.63
2023-01-13T04:32:38.524Z,96971.44
2023-01-13T04:35:05.559Z,96975.44
2023-01-13T04:37:32.183Z,96979.09
2023-01-13T04:39:58.947Z,96967.00
2023-01-13T04:42:25.680Z,96974.00
2023-01-13T04:44:52.412Z,96971.13
2023-01-13T04:47:24.038Z,96954.06
2023-01-13T04:49:50.668Z,96985.97
2023-01-13T04:52:17.217Z,96974.66
2023-01-13T04:54:43.861Z,96983.16
2023-01-13T04:57:10.506Z,96974.53
2023-01-13T04:59:37.181Z,96986.97
2023-01-13T05:02:03.812Z,96968.31
2023-01-13T05:04:30.505Z,96983.81
2023-01-13T05:06:57.136Z,96989.22
2023-01-13T05:09:23.781Z,96980.78
2023-01-13T05:12:08.996Z,96987.28
2023-01-13T05:14:54.257Z,96984.59
2023-01-13T05:17:24.601Z,96989.72
2023-01-13T05:19:51.465Z,96986.69
2023-01-13T05:22:36.822Z,96988.72
2023-01-13T05:25:21.583Z,96987.91
2023-01-13T05:27:49.776Z,96988.59
2023-01-13T05:30:17.213Z,96986.16
2023-01-13T05:32:44.113Z,96978.09
2023-01-13T05:35:10.717Z,96980.78
2023-01-13T05:37:37.867Z,96977.91
2023-01-13T05:40:23.761Z,96989.22
2023-01-13T05:43:19.956Z,97001.47
2023-01-13T05:46:08.987Z,96991.16
2023-01-13T05:48:38.493Z,96982.69
2023-01-13T05:51:07.640Z,96976.00
2023-01-13T05:53:34.562Z,96980.78
2023-01-13T05:56:04.730Z,96984.59
2023-01-13T05:58:31.459Z,96973.13
2023-01-13T06:01:03.554Z,96976.47
2023-01-13T06:03:31.026Z,96953.88
2023-01-13T06:06:02.362Z,96986.84
2023-01-13T06:08:30.040Z,96976.34
2023-01-13T06:10:57.171Z,96986.72
2023-01-13T06:13:25.421Z,96980.22
2023-01-13T06:15:55.626Z,96989.44
2023-01-13T06:18:23.313Z,96982.44
2023-01-13T06:20:49.906Z,96983.09
2023-01-13T06:23:17.637Z,96967.44
2023-01-13T06:25:57.046Z,96934.63
2023-01-13T06:28:25.904Z,96972.88
2023-01-13T06:30:58.301Z,96977.53
2023-01-13T06:33:37.500Z,96978.97
2023-01-13T06:36:11.336Z,96967.16
2023-01-13T06:38:43.152Z,96973.38
2023-01-13T06:41:10.137Z,96973.56
2023-01-13T06:43:38.637Z,96980.38
2023-01-13T06:46:05.679Z,96964.31
2023-01-13T06:48:35.532Z,96991.56
2023-01-13T06:51:03.941Z,96985.66
2023-01-13T06:53:30.706Z,96996.97
2023-01-13T06:55:57.395Z,96992.31
2023-01-13T06:58:24.078Z,96990.44
2023-01-13T07:00:51.758Z,96989.34
2023-01-13T07:03:19.861Z,96984.72
2023-01-13T07:05:56.764Z,96984.44
2023-01-13T07:08:24.516Z,96989.69
2023-01-13T07:11:02.455Z,96993.84
2023-01-13T07:14:11.477Z,96996.09
2023-01-13T07:16:38.480Z,97000.22
2023-01-13T07:19:05.225Z,97010.75
2023-01-13T07:21:31.881Z,96998.34
2023-01-13T07:23:58.589Z,96970.47
2023-01-13T07:26:25.842Z,96985.63
2023-01-13T07:28:52.547Z,96977.47
2023-01-13T07:31:23.334Z,97000.78
2023-01-13T07:34:06.800Z,96994.75
2023-01-13T07:36:34.236Z,96993.16
2023-01-13T07:39:01.363Z,96993.97
2023-01-13T07:41:49.608Z,96979.13
2023-01-13T07:44:16.220Z,96920.81
2023-01-13T07:46:42.902Z,96978.03
2023-01-13T07:49:10.227Z,96991.44
2023-01-13T07:51:39.217Z,96995.75
2023-01-13T07:54:06.317Z,96984.25
2023-01-13T07:56:33.740Z,96994.28
2023-01-13T07:59:01.060Z,96997.00
2023-01-13T08:01:28.480Z,96986.19
2023-01-13T08:03:56.362Z,96990.34
2023-01-13T08:06:23.130Z,96983.31
2023-01-13T08:08:49.826Z,96989.38
2023-01-13T08:11:16.868Z,96965.97
2023-01-13T08:13:43.748Z,96984.44
2023-01-13T08:16:13.597Z,96987.16
2023-01-13T08:18:41.156Z,96994.31
2023-01-13T08:21:13.384Z,96982.22
2023-01-13T08:23:41.886Z,96995.78
2023-01-13T08:26:14.610Z,97003.91
2023-01-13T08:28:41.521Z,96998.16
2023-01-13T08:31:11.806Z,96995.47
2023-01-13T08:33:39.229Z,96995.47
2023-01-13T08:36:08.039Z,96987.63
2023-01-13T08:38:35.652Z,96986.84
2023-01-13T08:41:41.617Z,96997.22
2023-01-13T08:44:09.442Z,96987.34
2023-01-13T08:46:36.617Z,97004.09
2023-01-13T08:49:03.776Z,97004.56
2023-01-13T08:51:30.427Z,97002.66
2023-01-13T08:53:57.088Z,96995.31
2023-01-13T08:56:23.721Z,97000.41
2023-01-13T08:58:50.322Z,97008.22
2023-01-13T09:01:21.364Z,97016.19
2023-01-13T09:03:48.204Z,97004.22
2023-01-13T09:06:15.071Z,97016.81
2023-01-13T09:08:42.155Z,97007.41
2023-01-13T09:11:39.207Z,97012.66
2023-01-13T09:14:05.936Z,97015.06
2023-01-13T09:16:32.607Z,96979.19
2023-01-13T09:18:59.263Z,96997.97
2023-01-13T09:21:26.604Z,96994.16
2023-01-13T09:23:53.222Z,96995.44
2023-01-13T09:26:21.983Z,97003.84
2023-01-13T09:28:48.626Z,96981.91
2023-01-13T09:31:15.226Z,96991.56
2023-01-13T09:34:00.800Z,96990.75
2023-01-13T09:36:28.398Z,96987.66
2023-01-13T09:38:54.943Z,96976.13
2023-01-13T09:41:44.575Z,96968.25
2023-01-13T09:44:28.610Z,96978.56
2023-01-13T09:47:03.655Z,96969.09
2023-01-13T09:49:42.200Z,96976.66
2023-01-13T09:52:19.523Z,96973.31
2023-01-13T09:54:53.701Z,96965.34
2023-01-13T09:57:21.517Z,96960.97
2023-01-13T09:59:48.748Z,96964.03
2023-01-13T10:02:18.164Z,96968.06
2023-01-13T10:05:02.972Z,96960.91
2023-01-13T10:07:34.639Z,96947.78
2023-01-13T10:10:04.336Z,96947.38
2023-01-13T10:12:50.870Z,96927.00
2023-01-13T10:15:23.250Z,96928.38
2023-01-13T10:18:03.748Z,96934.56
2023-01-13T10:20:55.072Z,96926.06
2023-01-13T10:23:46.012Z,96944.09
2023-01-13T10:26:27.900Z,96943.44
2023-01-13T10:28:55.964Z,96941.19
2023-01-13T10:31:23.833Z,96944.75
2023-01-13T10:34:01.575Z,96937.06
2023-01-13T10:36:28.326Z,96912.53
2023-01-13T10:39:14.745Z,96920.06
2023-01-13T10:41:41.606Z,96905.72
2023-01-13T10:44:19.204Z,96924.09
2023-01-13T10:46:57.581Z,96897.00
2023-01-13T10:49:38.830Z,96917.56
2023-01-13T10:52:26.809Z,96924.03
2023-01-13T10:54:55.062Z,96908.59
2023-01-13T10:57:24.857Z,96910.78
2023-01-13T10:59:51.525Z,96905.13
2023-01-13T11:02:30.782Z,96895.50
2023-01-13T11:04:58.300Z,96906.97
2023-01-13T11:07:38.556Z,96901.44
2023-01-13T11:10:22.296Z,96886.72
2023-01-13T11:13:16.719Z,96903.13
2023-01-13T11:15:59.164Z,96886.88
2023-01-13T11:18:43.739Z,96904.75
2023-01-13T11:21:31.575Z,96901.13
2023-01-13T11:24:12.887Z,96884.66
2023-01-13T11:26:53.701Z,96873.69
2023-01-13T11:30:00.108Z,96894.69
2023-01-13T11:32:31.074Z,96880.53
2023-01-13T11:35:03.301Z,96876.78
2023-01-13T11:37:40.924Z,96857.63
2023-01-13T11:40:21.482Z,96891.66
2023-01-13T11:43:07.339Z,96880.31
2023-01-13T11:45:40.939Z,96891.66
2023-01-13T11:48:15.005Z,96874.44
2023-01-13T11:51:02.167Z,96881.34
2023-01-13T11:54:09.775Z,96888.72
2023-01-13T11:56:51.738Z,96893.03
2023-01-13T11:59:39.676Z,96889.19
2023-01-13T12:02:47.772Z,96865.59
2023-01-13T12:05:34.284Z,96897.13
2023-01-13T12:08:12.498Z,96885.53
2023-01-13T12:11:03.401Z,96874.44
2023-01-13T12:14:10.557Z,96887.34
2023-01-13T12:16:47.651Z,96885.28
2023-01-13T12:19:28.257Z,96885.47
2023-01-13T12:22:20.577Z,96887.19
2023-01-13T12:25:20.761Z,96890.25
2023-01-13T12:27:55.902Z,96876.41
2023-01-13T12:30:29.546Z,96854.69
2023-01-13T12:33:11.103Z,96861.97
2023-01-13T12:35:50.069Z,96866.28
2023-01-13T12:38:46.846Z,96868.66
2023-01-13T12:42:04.394Z,96878.06
2023-01-13T12:44:31.103Z,96854.63
2023-01-13T12:46:58.922Z,96867.75
2023-01-13T12:49:31.667Z,96868.41
2023-01-13T12:51:58.172Z,96871.47
2023-01-13T12:54:34.244Z,96873.53
2023-01-13T12:57:01.249Z,96878.63
2023-01-13T12:59:27.845Z,96889.13
2023-01-13T13:02:19.175Z,96874.97
2023-01-13T13:04:51.937Z,96887.19
2023-01-13T13:07:40.516Z,96865.13
2023-01-13T13:10:36.578Z,96896.53
2023-01-13T13:13:19.999Z,96857.72
2023-01-13T13:15:49.546Z,96867.56
2023-01-13T13:18:23.974Z,96896.66
2023-01-13T13:21:07.163Z,96903.22
2023-01-13T13:23:38.016Z,96892.34
2023-01-13T13:26:24.874Z,96899.56
2023-01-13T13:29:16.223Z,96890.97
2023-01-13T13:32:18.590Z,96895.47
2023-01-13T13:34:51.177Z,96902.75
2023-01-13T13:38:14.898Z,96913.59
2023-01-13T13:41:05.733Z,96838.44
2023-01-13T13:44:06.017Z,96829.09
2023-01-13T13:46:51.645Z,96823.41
2023-01-13T13:49:34.553Z,96877.44
2023-01-13T13:52:34.693Z,96833.75
2023-01-13T13:55:15.718Z,96907.53
2023-01-13T13:57:48.590Z,96865.13
2023-01-13T14:00:24.880Z,96903.56
2023-01-13T14:02:57.635Z,96771.81
2023-01-13T14:05:36.649Z,96856.38
2023-01-13T14:08:31.870Z,96915.06
2023-01-13T14:11:01.551Z,96897.91
2023-01-13T14:13:34.077Z,96852.28
2023-01-13T14:16:06.784Z,96919.22
2023-01-13T14:18:46.170Z,96847.22
2023-01-13T14:21:24.060Z,96910.47
2023-01-13T14:24:17.067Z,96927.13
2023-01-13T14:27:09.795Z,96852.97
2023-01-13T14:29:46.057Z,96911.66
2023-01-13T14:32:44.065Z,96782.28
2023-01-13T14:35:29.390Z,96776.91
2023-01-13T14:38:02.385Z,96859.56
2023-01-13T14:40:39.506Z,96906.63
2023-01-13T14:43:14.098Z,96915.75
2023-01-13T14:46:02.855Z,96900.69
2023-01-13T14:48:36.100Z,96910.09
2023-01-13T14:51:06.491Z,96905.34
2023-01-13T14:53:43.294Z,96904.69
2023-01-13T14:56:40.816Z,96901.06
2023-01-13T14:59:42.253Z,96923.28
2023-01-13T15:02:36.451Z,96916.91
2023-01-13T15:05:20.198Z,96913.72
2023-01-13T15:07:51.348Z,96863.34
2023-01-13T15:10:20.453Z,96869.84
2023-01-13T15:12:51.544Z,96901.81
2023-01-13T15:15:35.196Z,96911.41
2023-01-13T15:18:11.139Z,96858.06
2023-01-13T15:20:40.379Z,96867.47
2023-01-13T15:23:07.415Z,96939.38
2023-01-13T15:25:36.703Z,96880.81
2023-01-13T15:28:06.044Z,96926.78
2023-01-13T15:30:33.188Z,96873.00
2023-01-13T15:33:00.665Z,96932.34
2023-01-13T15:35:30.083Z,96935.34
2023-01-13T15:37:58.155Z,96931.19
2023-01-13T15:40:33.576Z,96935.66
2023-01-13T15:43:18.977Z,96936.94
2023-01-13T15:46:04.984Z,96935.47
2023-01-13T15:48:33.031Z,96928.34
2023-01-13T15:51:02.245Z,96929.63
2023-01-13T15:53:29.849Z,96943.31
2023-01-13T15:55:58.483Z,96937.72
2023-01-13T15:58:28.504Z,96939.97
2023-01-13T16:00:55.507Z,96940.94
2023-01-13T16:03:22.957Z,96932.34
2023-01-13T16:05:49.700Z,96943.69
2023-01-13T16:08:22.550Z,96933.69
2023-01-13T16:10:50.488Z,96954.72
2023-01-13T16:13:18.013Z,96943.22
2023-01-13T16:15:49.799Z,96953.41
2023-01-13T16:18:23.833Z,96935.44
2023-01-13T16:20:57.177Z,96964.09
2023-01-13T16:23:23.764Z,96955.38
2023-01-13T16:25:52.418Z,96960.59
2023-01-13T16:28:24.118Z,96979.75
2023-01-13T16:30:51.293Z,96962.41
2023-01-13T16:33:17.920Z,96978.81
2023-01-13T16:36:09.721Z,96985.81
2023-01-13T16:38:31.205Z,96986.47
2023-01-13T16:40:57.773Z,96990.16
2023-01-13T16:43:24.375Z,96990.94
2023-01-13T16:45:50.997Z,96986.50
2023-01-13T16:48:20.121Z,96993.03
2023-01-13T16:50:47.137Z,96971.56
2023-01-13T16:53:13.810Z,96984.91
2023-01-13T16:55:42.403Z,96999.09
2023-01-13T16:58:20.600Z,96989.38
2023-01-13T17:00:48.063Z,96997.50
2023-01-13T17:03:15.998Z,96979.19
2023-01-13T17:05:44.483Z,96991.28
2023-01-13T17:08:17.773Z,96992.56
2023-01-13T17:10:45.915Z,96984.91
2023-01-13T17:13:16.358Z,96999.91
2023-01-13T17:15:44.687Z,96988.44
2023-01-13T17:18:17.226Z,96992.06
2023-01-13T17:20:43.827Z,96990.50
2023-01-13T17:23:15.567Z,96985.88
2023-01-13T17:25:44.205Z,96979.50
2023-01-13T17:28:12.931Z,96992.25
2023-01-13T17:30:45.231Z,96952.44
2023-01-13T17:33:16.923Z,96923.28
2023-01-13T17:35:48.199Z,96930.44
2023-01-13T17:38:17.283Z,96992.41
2023-01-13T17:40:43.986Z,96941.41
2023-01-13T17:43:11.579Z,96994.66
2023-01-13T17:45:42.698Z,96997.53
2023-01-13T17:48:09.519Z,96972.19
2023-01-13T17:50:36.276Z,96998.00
2023-01-13T17:53:02.895Z,96985.13
2023-01-13T17:55:29.804Z,97000.56
2023-01-13T17:57:56.962Z,96990.69
2023-01-13T18:00:23.896Z,97007.91
2023-01-13T18:02:54.219Z,96973.31
2023-01-13T18:05:28.976Z,96886.66
2023-01-13T18:07:57.243Z,96996.72
2023-01-13T18:10:37.202Z,97014.28
2023-01-13T18:13:06.044Z,97017.31
2023-01-13T18:15:37.271Z,96959.75
2023-01-13T18:18:08.120Z,97023.56
2023-01-13T18:21:00.994Z,96989.72
2023-01-13T18:23:53.893Z,96991.16
2023-01-13T18:26:41.903Z,97018.72
2023-01-13T18:29:13.595Z,96902.22
2023-01-13T18:31:41.923Z,96918.63
2023-01-13T18:34:08.699Z,96988.13
2023-01-13T18:36:35.649Z,97001.03
2023-01-13T18:39:03.530Z,97033.22
2023-01-13T18:41:50.543Z,97030.19
2023-01-13T18:44:17.840Z,97041.97
2023-01-13T18:46:44.538Z,97038.63
2023-01-13T18:49:11.199Z,97041.31
2023-01-13T18:51:40.074Z,97045.13
2023-01-13T18:54:07.045Z,97056.59
2023-01-13T18:56:33.638Z,97056.72
2023-01-13T18:59:01.891Z,97063.09
2023-01-13T19:01:36.350Z,97057.66
2023-01-13T19:04:18.504Z,97076.47
2023-01-13T19:06:52.537Z,97068.63
2023-01-13T19:09:27.655Z,97078.69
2023-01-13T19:11:57.246Z,97088.53
2023-01-13T19:14:42.613Z,97086.94
2023-01-13T19:17:13.208Z,97091.41
2023-01-13T19:19:53.863Z,97094.41
2023-01-13T19:22:24.136Z,97100.75
2023-01-13T19:24:57.270Z,97085.53
2023-01-13T19:27:25.562Z,97106.28
2023-01-13T19:29:54.045Z,97101.69
2023-01-13T19:32:22.485Z,97098.81
2023-01-13T19:34:51.287Z,97103.75
2023-01-13T19:37:19.723Z,97092.38
2023-01-13T19:39:46.680Z,97108.66
2023-01-13T19:42:33.005Z,97103.38
2023-01-13T19:45:18.643Z,97103.66
2023-01-13T19:47:46.123Z,97114.03
2023-01-13T19:50:17.239Z,97109.22
2023-01-13T19:52:44.331Z,97112.41
2023-01-13T19:55:12.803Z,97118.94
2023-01-13T19:57:43.625Z,97106.78
2023-01-13T20:00:11.965Z,97120.16
2023-01-13T20:02:39.034Z,97122.56
2023-01-13T20:05:18.502Z,97117.78
2023-01-13T20:07:48.686Z,97118.78
2023-01-13T20:10:20.065Z,97133.06
2023-01-13T20:12:49.896Z,97126.69
2023-01-13T20:15:16.917Z,97142.28
2023-01-13T20:17:43.974Z,97141.03
2023-01-13T20:20:12.189Z,97149.13
2023-01-13T20:22:40.488Z,97142.44
2023-01-13T20:25:08.720Z,97121.22
2023-01-13T20:27:42.764Z,97147.84
2023-01-13T20:30:19.427Z,97135.38
2023-01-13T20:32:46.406Z,97136.78
2023-01-13T20:35:14.544Z,97128.09
2023-01-13T20:37:43.030Z,97129.91
2023-01-13T20:40:14.251Z,97146.97
2023-01-13T20:42:50.248Z,97143.00
2023-01-13T20:45:21.061Z,97104.63
2023-01-13T20:47:48.016Z,97142.31
2023-01-13T20:50:16.056Z,97144.81
2023-01-13T20:52:43.322Z,97132.34
2023-01-13T20:55:10.816Z,97147.66
2023-01-13T20:57:37.473Z,97149.88
2023-01-13T21:00:05.733Z,97152.25
2023-01-13T21:02:32.515Z,97158.97
2023-01-13T21:04:59.299Z,97138.50
2023-01-13T21:07:25.915Z,97138.59
2023-01-13T21:09:53.980Z,97161.47
2023-01-13T21:15:17.403Z,97133.03
2023-01-13T21:18:05.167Z,97156.50
2023-01-13T21:20:34.682Z,97171.00
2023-01-13T21:23:05.954Z,97168.31
2023-01-13T21:25:36.537Z,97150.72
2023-01-13T21:28:07.404Z,97167.44
2023-01-13T21:30:39.731Z,97166.31
2023-01-13T21:33:06.720Z,97188.84
2023-01-13T21:35:34.270Z,97182.75
2023-01-13T21:38:00.919Z,97176.16
2023-01-13T21:40:27.744Z,97168.94
2023-01-13T21:43:13.993Z,97186.84
2023-01-13T21:45:58.946Z,97160.66
2023-01-13T21:48:25.687Z,97194.94
2023-01-13T21:50:52.340Z,97188.56
2023-01-13T21:53:19.029Z,97212.66
2023-01-13T21:55:50.827Z,97178.88
2023-01-13T21:58:17.577Z,97171.19
2023-01-13T22:00:49.291Z,97175.28
2023-01-13T22:03:18.470Z,97171.28
2023-01-13T22:05:46.265Z,97193.97
2023-01-13T22:08:13.777Z,97203.13
2023-01-13T22:11:10.013Z,97197.88
2023-01-13T22:13:54.962Z,97212.97
2023-01-13T22:16:22.903Z,97211.66
2023-01-13T22:18:49.741Z,97219.00
2023-01-13T22:21:17.773Z,97220.09
2023-01-13T22:23:45.410Z,97227.28
2023-01-13T22:26:12.449Z,97223.59
2023-01-13T22:28:43.497Z,97234.41
2023-01-13T22:31:12.835Z,97227.53
2023-01-13T22:33:40.550Z,97236.59
2023-01-13T22:36:14.478Z,97229.63
2023-01-13T22:38:41.106Z,97231.31
2023-01-13T22:41:09.065Z,97234.53
2023-01-13T22:43:36.813Z,97240.44
2023-01-13T22:46:07.249Z,97241.41
2023-01-13T22:48:34.888Z,97227.19
2023-01-13T22:51:13.150Z,97233.53
2023-01-13T22:53:41.379Z,97236.22
2023-01-13T22:56:09.923Z,97244.03
2023-01-13T22:58:36.479Z,97219.06
2023-01-13T23:01:15.358Z,97244.63
2023-01-13T23:03:46.402Z,97245.75
2023-01-13T23:06:14.993Z,97254.22
2023-01-13T23:08:41.716Z,97229.91
2023-01-13T23:11:11.360Z,97257.63
2023-01-13T23:13:39.543Z,97259.22
2023-01-13T23:16:08.834Z,97261.31
2023-01-13T23:18:35.489Z,97262.75
2023-01-13T23:21:26.769Z,97262.44
2023-01-13T23:23:53.884Z,97264.03
2023-01-13T23:26:21.676Z,97262.44
2023-01-13T23:28:49.088Z,97264.94
2023-01-13T23:31:18.761Z,97259.97
2023-01-13T23:33:46.165Z,97269.66
2023-01-13T23:36:19.068Z,97270.22
2023-01-13T23:38:46.342Z,97274.84
2023-01-13T23:41:18.660Z,97274.84
2023-01-13T23:43:53.718Z,97273.06
2023-01-13T23:46:21.125Z,97270.44
2023-01-13T23:48:48.458Z,97272.25
2023-01-13T23:51:15.347Z,97255.06
2023-01-13T23:53:47.233Z,97277.66
2023-01-13T23:56:25.677Z,97255.25
2023-01-13T23:58:53.496Z,97281.78
